sensor_id;sensor_type;location;lat;lon;timestamp;P1;durP1;ratioP1;P2;durP2;ratioP2
21354;SDS011;10835;50.148;19.760;2023-03-09T00:01:36;15.65;;;7.63;;
21354;SDS011;10835;50.148;19.760;2023-03-09T00:04:05;13.77;;;7.07;;
21354;SDS011;10835;50.148;19.760;2023-03-09T00:06:39;14.60;;;6.60;;
21354;SDS011;10835;50.148;19.760;2023-03-09T00:09:07;16.48;;;8.23;;
21354;SDS011;10835;50.148;19.760;2023-03-09T00:11:38;15.82;;;7.32;;
21354;SDS011;10835;50.148;19.760;2023-03-09T00:14:09;13.30;;;7.15;;
21354;SDS011;10835;50.148;19.760;2023-03-09T00:16:37;14.88;;;7.30;;
21354;SDS011;10835;50.148;19.760;2023-03-09T00:19:06;15.63;;;6.78;;
21354;SDS011;10835;50.148;19.760;2023-03-09T00:21:35;14.18;;;7.95;;
21354;SDS011;10835;50.148;19.760;2023-03-09T00:24:06;12.10;;;6.20;;
21354;SDS011;10835;50.148;19.760;2023-03-09T00:26:37;12.15;;;6.53;;
21354;SDS011;10835;50.148;19.760;2023-03-09T00:29:07;12.30;;;7.40;;
21354;SDS011;10835;50.148;19.760;2023-03-09T00:31:38;16.70;;;6.93;;
21354;SDS011;10835;50.148;19.760;2023-03-09T00:34:06;16.90;;;7.90;;
21354;SDS011;10835;50.148;19.760;2023-03-09T00:36:35;14.15;;;8.25;;
21354;SDS011;10835;50.148;19.760;2023-03-09T00:39:03;10.98;;;6.00;;
21354;SDS011;10835;50.148;19.760;2023-03-09T00:41:37;14.80;;;7.20;;
21354;SDS011;10835;50.148;19.760;2023-03-09T00:44:06;10.70;;;5.72;;
21354;SDS011;10835;50.148;19.760;2023-03-09T00:46:35;9.13;;;6.10;;
21354;SDS011;10835;50.148;19.760;2023-03-09T00:49:05;12.98;;;7.07;;
21354;SDS011;10835;50.148;19.760;2023-03-09T00:51:34;12.02;;;5.22;;
21354;SDS011;10835;50.148;19.760;2023-03-09T00:54:04;15.55;;;7.97;;
21354;SDS011;10835;50.148;19.760;2023-03-09T00:56:34;12.90;;;7.35;;
21354;SDS011;10835;50.148;19.760;2023-03-09T00:59:02;14.93;;;8.07;;
21354;SDS011;10835;50.148;19.760;2023-03-09T01:01:31;12.27;;;6.80;;
21354;SDS011;10835;50.148;19.760;2023-03-09T01:03:59;11.20;;;6.10;;
21354;SDS011;10835;50.148;19.760;2023-03-09T01:06:29;18.83;;;8.55;;
21354;SDS011;10835;50.148;19.760;2023-03-09T01:08:58;15.52;;;7.28;;
21354;SDS011;10835;50.148;19.760;2023-03-09T01:11:26;22.42;;;9.98;;
21354;SDS011;10835;50.148;19.760;2023-03-09T01:13:54;16.90;;;8.85;;
21354;SDS011;10835;50.148;19.760;2023-03-09T01:16:23;16.90;;;7.75;;
21354;SDS011;10835;50.148;19.760;2023-03-09T01:18:51;14.77;;;8.20;;
21354;SDS011;10835;50.148;19.760;2023-03-09T01:21:19;12.45;;;6.90;;
21354;SDS011;10835;50.148;19.760;2023-03-09T01:23:49;13.48;;;7.00;;
21354;SDS011;10835;50.148;19.760;2023-03-09T01:26:17;15.93;;;6.15;;
21354;SDS011;10835;50.148;19.760;2023-03-09T01:28:46;13.45;;;8.07;;
21354;SDS011;10835;50.148;19.760;2023-03-09T01:31:15;15.13;;;8.05;;
21354;SDS011;10835;50.148;19.760;2023-03-09T01:33:44;11.65;;;7.53;;
21354;SDS011;10835;50.148;19.760;2023-03-09T01:36:14;12.27;;;7.05;;
21354;SDS011;10835;50.148;19.760;2023-03-09T01:38:44;11.55;;;7.40;;
21354;SDS011;10835;50.148;19.760;2023-03-09T01:41:15;13.27;;;6.22;;
21354;SDS011;10835;50.148;19.760;2023-03-09T01:43:45;10.75;;;5.47;;
21354;SDS011;10835;50.148;19.760;2023-03-09T01:46:24;13.55;;;7.43;;
21354;SDS011;10835;50.148;19.760;2023-03-09T01:49:01;12.23;;;6.85;;
21354;SDS011;10835;50.148;19.760;2023-03-09T01:51:40;14.32;;;8.00;;
21354;SDS011;10835;50.148;19.760;2023-03-09T01:54:14;14.77;;;6.55;;
21354;SDS011;10835;50.148;19.760;2023-03-09T01:56:50;14.00;;;7.35;;
21354;SDS011;10835;50.148;19.760;2023-03-09T01:59:21;14.15;;;6.75;;
21354;SDS011;10835;50.148;19.760;2023-03-09T02:01:51;10.75;;;6.90;;
21354;SDS011;10835;50.148;19.760;2023-03-09T02:04:21;11.98;;;5.80;;
21354;SDS011;10835;50.148;19.760;2023-03-09T02:06:54;8.52;;;5.30;;
21354;SDS011;10835;50.148;19.760;2023-03-09T02:09:26;11.18;;;6.30;;
21354;SDS011;10835;50.148;19.760;2023-03-09T02:12:02;8.35;;;5.38;;
21354;SDS011;10835;50.148;19.760;2023-03-09T02:14:32;9.55;;;5.60;;
21354;SDS011;10835;50.148;19.760;2023-03-09T02:17:00;10.73;;;6.13;;
21354;SDS011;10835;50.148;19.760;2023-03-09T02:22:32;10.30;;;5.07;;
21354;SDS011;10835;50.148;19.760;2023-03-09T02:25:05;9.25;;;5.85;;
21354;SDS011;10835;50.148;19.760;2023-03-09T02:27:43;8.43;;;5.53;;
21354;SDS011;10835;50.148;19.760;2023-03-09T02:30:12;9.52;;;5.43;;
21354;SDS011;10835;50.148;19.760;2023-03-09T02:32:41;7.95;;;4.78;;
21354;SDS011;10835;50.148;19.760;2023-03-09T02:35:10;8.88;;;4.90;;
21354;SDS011;10835;50.148;19.760;2023-03-09T02:37:43;9.27;;;4.82;;
21354;SDS011;10835;50.148;19.760;2023-03-09T02:40:21;7.10;;;5.13;;
21354;SDS011;10835;50.148;19.760;2023-03-09T02:42:59;12.75;;;6.28;;
21354;SDS011;10835;50.148;19.760;2023-03-09T02:45:28;9.85;;;5.97;;
21354;SDS011;10835;50.148;19.760;2023-03-09T02:47:59;11.48;;;6.22;;
21354;SDS011;10835;50.148;19.760;2023-03-09T02:50:27;9.85;;;5.47;;
21354;SDS011;10835;50.148;19.760;2023-03-09T02:52:56;9.90;;;5.40;;
21354;SDS011;10835;50.148;19.760;2023-03-09T02:55:24;10.65;;;5.88;;
21354;SDS011;10835;50.148;19.760;2023-03-09T02:57:53;13.77;;;6.07;;
21354;SDS011;10835;50.148;19.760;2023-03-09T03:00:23;11.88;;;7.07;;
21354;SDS011;10835;50.148;19.760;2023-03-09T03:02:53;9.68;;;5.68;;
21354;SDS011;10835;50.148;19.760;2023-03-09T03:05:21;10.05;;;5.95;;
21354;SDS011;10835;50.148;19.760;2023-03-09T03:07:49;9.57;;;5.70;;
21354;SDS011;10835;50.148;19.760;2023-03-09T03:10:20;8.43;;;4.80;;
21354;SDS011;10835;50.148;19.760;2023-03-09T03:12:49;7.18;;;4.75;;
21354;SDS011;10835;50.148;19.760;2023-03-09T03:15:17;9.15;;;4.97;;
21354;SDS011;10835;50.148;19.760;2023-03-09T03:17:46;8.77;;;5.32;;
21354;SDS011;10835;50.148;19.760;2023-03-09T03:20:15;9.40;;;5.43;;
21354;SDS011;10835;50.148;19.760;2023-03-09T03:22:46;8.00;;;4.90;;
21354;SDS011;10835;50.148;19.760;2023-03-09T03:25:19;7.35;;;4.80;;
21354;SDS011;10835;50.148;19.760;2023-03-09T03:27:50;6.72;;;4.90;;
21354;SDS011;10835;50.148;19.760;2023-03-09T03:30:18;9.75;;;4.97;;
21354;SDS011;10835;50.148;19.760;2023-03-09T03:32:50;7.05;;;5.43;;
21354;SDS011;10835;50.148;19.760;2023-03-09T03:35:25;8.85;;;4.97;;
21354;SDS011;10835;50.148;19.760;2023-03-09T03:37:54;7.03;;;4.47;;
21354;SDS011;10835;50.148;19.760;2023-03-09T03:40:23;7.10;;;4.38;;
21354;SDS011;10835;50.148;19.760;2023-03-09T03:42:55;8.88;;;5.57;;
21354;SDS011;10835;50.148;19.760;2023-03-09T03:45:23;8.45;;;4.82;;
21354;SDS011;10835;50.148;19.760;2023-03-09T03:47:53;12.18;;;5.55;;
21354;SDS011;10835;50.148;19.760;2023-03-09T03:50:22;9.10;;;4.82;;
21354;SDS011;10835;50.148;19.760;2023-03-09T03:52:56;6.93;;;4.13;;
21354;SDS011;10835;50.148;19.760;2023-03-09T03:55:25;10.27;;;6.03;;
21354;SDS011;10835;50.148;19.760;2023-03-09T03:57:53;8.98;;;5.30;;
21354;SDS011;10835;50.148;19.760;2023-03-09T04:00:22;9.73;;;5.93;;
21354;SDS011;10835;50.148;19.760;2023-03-09T04:02:55;8.73;;;5.47;;
21354;SDS011;10835;50.148;19.760;2023-03-09T04:05:35;9.15;;;6.03;;
21354;SDS011;10835;50.148;19.760;2023-03-09T04:08:03;8.18;;;4.90;;
21354;SDS011;10835;50.148;19.760;2023-03-09T04:10:33;10.60;;;6.28;;
21354;SDS011;10835;50.148;19.760;2023-03-09T04:13:05;8.60;;;4.47;;
21354;SDS011;10835;50.148;19.760;2023-03-09T04:15:33;8.85;;;5.57;;
21354;SDS011;10835;50.148;19.760;2023-03-09T04:18:04;6.60;;;4.82;;
21354;SDS011;10835;50.148;19.760;2023-03-09T04:20:34;9.90;;;4.85;;
21354;SDS011;10835;50.148;19.760;2023-03-09T04:23:03;10.57;;;5.50;;
21354;SDS011;10835;50.148;19.760;2023-03-09T04:25:34;7.65;;;5.00;;
21354;SDS011;10835;50.148;19.760;2023-03-09T04:28:03;9.10;;;5.60;;
21354;SDS011;10835;50.148;19.760;2023-03-09T04:30:35;6.30;;;4.57;;
21354;SDS011;10835;50.148;19.760;2023-03-09T04:33:09;8.77;;;4.50;;
21354;SDS011;10835;50.148;19.760;2023-03-09T04:35:38;9.48;;;5.00;;
21354;SDS011;10835;50.148;19.760;2023-03-09T04:38:15;9.55;;;4.50;;
21354;SDS011;10835;50.148;19.760;2023-03-09T04:40:46;9.07;;;4.80;;
21354;SDS011;10835;50.148;19.760;2023-03-09T04:43:14;7.97;;;5.25;;
21354;SDS011;10835;50.148;19.760;2023-03-09T04:45:43;8.55;;;4.43;;
21354;SDS011;10835;50.148;19.760;2023-03-09T04:48:13;9.63;;;4.70;;
21354;SDS011;10835;50.148;19.760;2023-03-09T04:50:41;7.35;;;4.78;;
21354;SDS011;10835;50.148;19.760;2023-03-09T04:53:12;7.90;;;4.95;;
21354;SDS011;10835;50.148;19.760;2023-03-09T04:55:40;8.90;;;5.10;;
21354;SDS011;10835;50.148;19.760;2023-03-09T04:58:11;7.65;;;4.95;;
21354;SDS011;10835;50.148;19.760;2023-03-09T05:00:39;10.07;;;5.28;;
21354;SDS011;10835;50.148;19.760;2023-03-09T05:03:10;7.22;;;5.13;;
21354;SDS011;10835;50.148;19.760;2023-03-09T05:05:45;9.48;;;5.38;;
21354;SDS011;10835;50.148;19.760;2023-03-09T05:08:14;7.78;;;4.35;;
21354;SDS011;10835;50.148;19.760;2023-03-09T05:10:43;6.07;;;4.70;;
21354;SDS011;10835;50.148;19.760;2023-03-09T05:13:11;9.35;;;4.38;;
21354;SDS011;10835;50.148;19.760;2023-03-09T05:15:40;9.07;;;4.88;;
21354;SDS011;10835;50.148;19.760;2023-03-09T05:18:10;7.10;;;4.15;;
21354;SDS011;10835;50.148;19.760;2023-03-09T05:20:40;8.15;;;4.65;;
21354;SDS011;10835;50.148;19.760;2023-03-09T05:23:09;5.82;;;4.05;;
21354;SDS011;10835;50.148;19.760;2023-03-09T05:25:37;7.05;;;4.00;;
21354;SDS011;10835;50.148;19.760;2023-03-09T05:28:07;6.15;;;4.47;;
21354;SDS011;10835;50.148;19.760;2023-03-09T05:30:36;10.15;;;6.00;;
21354;SDS011;10835;50.148;19.760;2023-03-09T05:33:07;8.60;;;4.45;;
21354;SDS011;10835;50.148;19.760;2023-03-09T05:35:37;5.28;;;3.85;;
21354;SDS011;10835;50.148;19.760;2023-03-09T05:38:08;6.57;;;4.18;;
21354;SDS011;10835;50.148;19.760;2023-03-09T05:40:39;7.20;;;4.95;;
21354;SDS011;10835;50.148;19.760;2023-03-09T05:43:10;7.97;;;5.03;;
21354;SDS011;10835;50.148;19.760;2023-03-09T05:45:39;8.27;;;4.35;;
21354;SDS011;10835;50.148;19.760;2023-03-09T05:48:07;8.07;;;4.47;;
21354;SDS011;10835;50.148;19.760;2023-03-09T05:50:36;5.93;;;3.55;;
21354;SDS011;10835;50.148;19.760;2023-03-09T05:53:07;7.00;;;4.38;;
21354;SDS011;10835;50.148;19.760;2023-03-09T05:55:39;5.47;;;3.58;;
21354;SDS011;10835;50.148;19.760;2023-03-09T05:58:09;7.47;;;3.67;;
21354;SDS011;10835;50.148;19.760;2023-03-09T06:00:37;7.90;;;3.97;;
21354;SDS011;10835;50.148;19.760;2023-03-09T06:03:06;5.60;;;3.90;;
21354;SDS011;10835;50.148;19.760;2023-03-09T06:05:46;6.43;;;3.60;;
21354;SDS011;10835;50.148;19.760;2023-03-09T06:08:16;5.63;;;3.78;;
21354;SDS011;10835;50.148;19.760;2023-03-09T06:10:49;5.95;;;3.17;;
21354;SDS011;10835;50.148;19.760;2023-03-09T06:13:17;5.00;;;2.80;;
21354;SDS011;10835;50.148;19.760;2023-03-09T06:15:47;5.80;;;3.33;;
21354;SDS011;10835;50.148;19.760;2023-03-09T06:18:16;3.90;;;3.05;;
21354;SDS011;10835;50.148;19.760;2023-03-09T06:20:46;6.40;;;3.40;;
21354;SDS011;10835;50.148;19.760;2023-03-09T06:23:15;4.00;;;2.72;;
21354;SDS011;10835;50.148;19.760;2023-03-09T06:25:45;4.47;;;3.38;;
21354;SDS011;10835;50.148;19.760;2023-03-09T06:28:14;5.95;;;3.88;;
21354;SDS011;10835;50.148;19.760;2023-03-09T06:30:43;6.68;;;3.33;;
21354;SDS011;10835;50.148;19.760;2023-03-09T06:33:11;7.97;;;3.70;;
21354;SDS011;10835;50.148;19.760;2023-03-09T06:35:44;5.30;;;3.08;;
21354;SDS011;10835;50.148;19.760;2023-03-09T06:38:12;4.68;;;3.35;;
21354;SDS011;10835;50.148;19.760;2023-03-09T06:40:47;12.50;;;7.45;;
21354;SDS011;10835;50.148;19.760;2023-03-09T06:43:21;6.75;;;3.88;;
21354;SDS011;10835;50.148;19.760;2023-03-09T06:45:49;5.50;;;3.97;;
21354;SDS011;10835;50.148;19.760;2023-03-09T06:48:17;7.07;;;4.90;;
21354;SDS011;10835;50.148;19.760;2023-03-09T06:50:47;8.30;;;4.82;;
21354;SDS011;10835;50.148;19.760;2023-03-09T06:53:16;8.55;;;4.68;;
21354;SDS011;10835;50.148;19.760;2023-03-09T06:55:53;8.77;;;5.88;;
21354;SDS011;10835;50.148;19.760;2023-03-09T06:58:27;10.13;;;6.57;;
21354;SDS011;10835;50.148;19.760;2023-03-09T07:00:56;11.68;;;6.90;;
21354;SDS011;10835;50.148;19.760;2023-03-09T07:03:24;22.15;;;9.75;;
21354;SDS011;10835;50.148;19.760;2023-03-09T07:05:53;18.02;;;9.88;;
21354;SDS011;10835;50.148;19.760;2023-03-09T07:08:21;15.40;;;8.95;;
21354;SDS011;10835;50.148;19.760;2023-03-09T07:10:49;19.17;;;10.55;;
21354;SDS011;10835;50.148;19.760;2023-03-09T07:13:19;14.48;;;9.88;;
21354;SDS011;10835;50.148;19.760;2023-03-09T07:15:47;20.55;;;10.00;;
21354;SDS011;10835;50.148;19.760;2023-03-09T07:18:18;19.02;;;9.23;;
21354;SDS011;10835;50.148;19.760;2023-03-09T07:20:47;13.48;;;7.80;;
21354;SDS011;10835;50.148;19.760;2023-03-09T07:23:18;11.65;;;7.18;;
21354;SDS011;10835;50.148;19.760;2023-03-09T07:25:47;10.90;;;7.43;;
21354;SDS011;10835;50.148;19.760;2023-03-09T07:28:15;11.48;;;7.50;;
21354;SDS011;10835;50.148;19.760;2023-03-09T07:30:47;16.23;;;9.65;;
21354;SDS011;10835;50.148;19.760;2023-03-09T07:33:17;15.18;;;9.50;;
21354;SDS011;10835;50.148;19.760;2023-03-09T07:35:45;13.80;;;8.30;;
21354;SDS011;10835;50.148;19.760;2023-03-09T07:38:13;13.63;;;7.35;;
21354;SDS011;10835;50.148;19.760;2023-03-09T07:40:42;11.20;;;6.72;;
21354;SDS011;10835;50.148;19.760;2023-03-09T07:43:10;12.85;;;8.15;;
21354;SDS011;10835;50.148;19.760;2023-03-09T07:45:59;13.60;;;8.63;;
21354;SDS011;10835;50.148;19.760;2023-03-09T07:48:28;12.82;;;8.20;;
21354;SDS011;10835;50.148;19.760;2023-03-09T07:50:57;15.80;;;8.23;;
21354;SDS011;10835;50.148;19.760;2023-03-09T07:53:25;13.23;;;8.25;;
21354;SDS011;10835;50.148;19.760;2023-03-09T07:55:54;15.25;;;8.70;;
21354;SDS011;10835;50.148;19.760;2023-03-09T07:58:23;15.57;;;9.05;;
21354;SDS011;10835;50.148;19.760;2023-03-09T08:00:51;16.20;;;9.60;;
21354;SDS011;10835;50.148;19.760;2023-03-09T08:03:21;16.17;;;10.27;;
21354;SDS011;10835;50.148;19.760;2023-03-09T08:05:49;16.13;;;8.63;;
21354;SDS011;10835;50.148;19.760;2023-03-09T08:08:21;13.25;;;8.15;;
21354;SDS011;10835;50.148;19.760;2023-03-09T08:10:50;10.88;;;7.47;;
21354;SDS011;10835;50.148;19.760;2023-03-09T08:13:19;13.18;;;8.00;;
21354;SDS011;10835;50.148;19.760;2023-03-09T08:15:48;11.70;;;7.63;;
21354;SDS011;10835;50.148;19.760;2023-03-09T08:18:20;11.95;;;7.30;;
21354;SDS011;10835;50.148;19.760;2023-03-09T08:20:49;11.02;;;7.60;;
21354;SDS011;10835;50.148;19.760;2023-03-09T08:23:18;12.25;;;7.70;;
21354;SDS011;10835;50.148;19.760;2023-03-09T08:25:51;11.82;;;7.13;;
21354;SDS011;10835;50.148;19.760;2023-03-09T08:28:20;10.23;;;6.55;;
21354;SDS011;10835;50.148;19.760;2023-03-09T08:30:49;8.90;;;6.55;;
21354;SDS011;10835;50.148;19.760;2023-03-09T08:33:17;10.35;;;6.55;;
21354;SDS011;10835;50.148;19.760;2023-03-09T08:35:47;10.55;;;6.20;;
21354;SDS011;10835;50.148;19.760;2023-03-09T08:38:15;8.40;;;5.88;;
21354;SDS011;10835;50.148;19.760;2023-03-09T08:40:43;9.73;;;6.03;;
21354;SDS011;10835;50.148;19.760;2023-03-09T08:43:11;9.27;;;5.18;;
21354;SDS011;10835;50.148;19.760;2023-03-09T08:45:39;8.00;;;5.95;;
21354;SDS011;10835;50.148;19.760;2023-03-09T08:48:08;12.02;;;6.78;;
21354;SDS011;10835;50.148;19.760;2023-03-09T08:50:36;13.82;;;8.52;;
21354;SDS011;10835;50.148;19.760;2023-03-09T08:53:08;15.63;;;9.18;;
21354;SDS011;10835;50.148;19.760;2023-03-09T08:55:36;18.75;;;10.82;;
21354;SDS011;10835;50.148;19.760;2023-03-09T08:58:07;9.48;;;5.80;;
21354;SDS011;10835;50.148;19.760;2023-03-09T09:00:36;9.10;;;4.53;;
21354;SDS011;10835;50.148;19.760;2023-03-09T09:03:04;7.70;;;3.80;;
21354;SDS011;10835;50.148;19.760;2023-03-09T09:05:33;7.57;;;5.03;;
21354;SDS011;10835;50.148;19.760;2023-03-09T09:08:01;9.25;;;5.03;;
21354;SDS011;10835;50.148;19.760;2023-03-09T09:10:32;8.35;;;5.10;;
21354;SDS011;10835;50.148;19.760;2023-03-09T09:13:02;6.25;;;5.03;;
21354;SDS011;10835;50.148;19.760;2023-03-09T09:15:30;10.38;;;5.30;;
21354;SDS011;10835;50.148;19.760;2023-03-09T09:17:58;8.15;;;4.57;;
21354;SDS011;10835;50.148;19.760;2023-03-09T09:20:26;12.38;;;6.18;;
21354;SDS011;10835;50.148;19.760;2023-03-09T09:22:55;7.60;;;4.57;;
21354;SDS011;10835;50.148;19.760;2023-03-09T09:25:23;5.45;;;3.08;;
21354;SDS011;10835;50.148;19.760;2023-03-09T09:27:52;6.97;;;3.20;;
21354;SDS011;10835;50.148;19.760;2023-03-09T09:30:22;2.33;;;2.13;;
21354;SDS011;10835;50.148;19.760;2023-03-09T09:32:50;5.65;;;2.72;;
21354;SDS011;10835;50.148;19.760;2023-03-09T09:35:19;5.72;;;2.40;;
21354;SDS011;10835;50.148;19.760;2023-03-09T09:37:47;6.30;;;3.60;;
21354;SDS011;10835;50.148;19.760;2023-03-09T09:40:15;5.22;;;2.80;;
21354;SDS011;10835;50.148;19.760;2023-03-09T09:42:44;5.95;;;3.08;;
21354;SDS011;10835;50.148;19.760;2023-03-09T09:45:21;4.63;;;2.72;;
21354;SDS011;10835;50.148;19.760;2023-03-09T09:47:54;4.95;;;3.10;;
21354;SDS011;10835;50.148;19.760;2023-03-09T09:50:26;5.85;;;3.03;;
21354;SDS011;10835;50.148;19.760;2023-03-09T09:53:02;4.43;;;2.75;;
21354;SDS011;10835;50.148;19.760;2023-03-09T09:55:39;4.50;;;2.60;;
21354;SDS011;10835;50.148;19.760;2023-03-09T09:58:11;5.18;;;3.33;;
21354;SDS011;10835;50.148;19.760;2023-03-09T10:00:52;5.72;;;3.58;;
21354;SDS011;10835;50.148;19.760;2023-03-09T10:03:23;7.95;;;4.07;;
21354;SDS011;10835;50.148;19.760;2023-03-09T10:05:55;9.75;;;5.30;;
21354;SDS011;10835;50.148;19.760;2023-03-09T10:08:29;7.95;;;4.03;;
21354;SDS011;10835;50.148;19.760;2023-03-09T10:11:04;11.50;;;5.35;;
21354;SDS011;10835;50.148;19.760;2023-03-09T10:13:39;8.10;;;4.90;;
21354;SDS011;10835;50.148;19.760;2023-03-09T10:16:11;11.35;;;5.55;;
21354;SDS011;10835;50.148;19.760;2023-03-09T10:18:46;9.02;;;4.32;;
21354;SDS011;10835;50.148;19.760;2023-03-09T10:21:21;7.20;;;4.32;;
21354;SDS011;10835;50.148;19.760;2023-03-09T10:23:52;5.53;;;3.47;;
21354;SDS011;10835;50.148;19.760;2023-03-09T10:26:32;8.00;;;3.35;;
21354;SDS011;10835;50.148;19.760;2023-03-09T10:29:09;17.10;;;5.95;;
21354;SDS011;10835;50.148;19.760;2023-03-09T10:31:45;13.20;;;4.55;;
21354;SDS011;10835;50.148;19.760;2023-03-09T10:34:19;11.70;;;3.45;;
21354;SDS011;10835;50.148;19.760;2023-03-09T10:36:58;7.47;;;3.65;;
21354;SDS011;10835;50.148;19.760;2023-03-09T10:39:29;10.38;;;5.85;;
21354;SDS011;10835;50.148;19.760;2023-03-09T10:42:07;6.50;;;3.95;;
21354;SDS011;10835;50.148;19.760;2023-03-09T10:44:46;11.90;;;5.05;;
21354;SDS011;10835;50.148;19.760;2023-03-09T10:47:33;6.13;;;3.17;;
21354;SDS011;10835;50.148;19.760;2023-03-09T10:50:19;4.95;;;3.53;;
21354;SDS011;10835;50.148;19.760;2023-03-09T10:52:51;5.20;;;3.30;;
21354;SDS011;10835;50.148;19.760;2023-03-09T10:58:19;3.72;;;2.58;;
21354;SDS011;10835;50.148;19.760;2023-03-09T11:00:56;2.97;;;2.45;;
21354;SDS011;10835;50.148;19.760;2023-03-09T11:03:30;5.05;;;2.13;;
21354;SDS011;10835;50.148;19.760;2023-03-09T11:08:57;3.03;;;2.17;;
21354;SDS011;10835;50.148;19.760;2023-03-09T11:11:42;4.93;;;1.95;;
21354;SDS011;10835;50.148;19.760;2023-03-09T11:14:20;5.43;;;3.20;;
21354;SDS011;10835;50.148;19.760;2023-03-09T11:16:52;4.53;;;3.05;;
21354;SDS011;10835;50.148;19.760;2023-03-09T11:19:24;5.32;;;3.13;;
21354;SDS011;10835;50.148;19.760;2023-03-09T11:21:57;6.05;;;1.80;;
21354;SDS011;10835;50.148;19.760;2023-03-09T11:24:29;3.45;;;2.05;;
21354;SDS011;10835;50.148;19.760;2023-03-09T11:27:02;2.70;;;2.22;;
21354;SDS011;10835;50.148;19.760;2023-03-09T11:29:34;3.67;;;2.50;;
21354;SDS011;10835;50.148;19.760;2023-03-09T11:32:10;3.75;;;2.83;;
21354;SDS011;10835;50.148;19.760;2023-03-09T11:34:41;4.47;;;2.80;;
21354;SDS011;10835;50.148;19.760;2023-03-09T11:37:15;6.47;;;3.45;;
21354;SDS011;10835;50.148;19.760;2023-03-09T11:39:47;2.22;;;1.33;;
21354;SDS011;10835;50.148;19.760;2023-03-09T11:42:21;8.57;;;3.45;;
21354;SDS011;10835;50.148;19.760;2023-03-09T11:45:08;9.13;;;3.58;;
21354;SDS011;10835;50.148;19.760;2023-03-09T11:47:43;6.82;;;2.47;;
21354;SDS011;10835;50.148;19.760;2023-03-09T11:50:18;10.18;;;4.57;;
21354;SDS011;10835;50.148;19.760;2023-03-09T11:52:49;12.32;;;3.38;;
21354;SDS011;10835;50.148;19.760;2023-03-09T11:55:24;15.73;;;6.10;;
21354;SDS011;10835;50.148;19.760;2023-03-09T11:58:00;11.98;;;4.47;;
21354;SDS011;10835;50.148;19.760;2023-03-09T12:00:33;4.97;;;2.03;;
21354;SDS011;10835;50.148;19.760;2023-03-09T12:03:04;10.38;;;3.67;;
21354;SDS011;10835;50.148;19.760;2023-03-09T12:05:42;19.83;;;5.47;;
21354;SDS011;10835;50.148;19.760;2023-03-09T12:08:14;19.52;;;4.43;;
21354;SDS011;10835;50.148;19.760;2023-03-09T12:10:46;8.20;;;2.72;;
21354;SDS011;10835;50.148;19.760;2023-03-09T12:13:22;5.28;;;2.65;;
21354;SDS011;10835;50.148;19.760;2023-03-09T12:15:54;14.60;;;5.28;;
21354;SDS011;10835;50.148;19.760;2023-03-09T12:18:27;8.75;;;2.65;;
21354;SDS011;10835;50.148;19.760;2023-03-09T12:21:01;11.57;;;5.13;;
21354;SDS011;10835;50.148;19.760;2023-03-09T12:23:42;5.32;;;1.90;;
21354;SDS011;10835;50.148;19.760;2023-03-09T12:26:19;9.20;;;4.50;;
21354;SDS011;10835;50.148;19.760;2023-03-09T12:29:01;6.13;;;2.72;;
21354;SDS011;10835;50.148;19.760;2023-03-09T12:31:33;9.77;;;4.38;;
21354;SDS011;10835;50.148;19.760;2023-03-09T12:34:04;13.60;;;5.75;;
21354;SDS011;10835;50.148;19.760;2023-03-09T12:36:52;8.30;;;3.83;;
21354;SDS011;10835;50.148;19.760;2023-03-09T12:39:41;9.18;;;4.32;;
21354;SDS011;10835;50.148;19.760;2023-03-09T12:42:26;7.93;;;4.20;;
21354;SDS011;10835;50.148;19.760;2023-03-09T12:45:00;6.15;;;3.25;;
21354;SDS011;10835;50.148;19.760;2023-03-09T12:47:34;4.72;;;3.17;;
21354;SDS011;10835;50.148;19.760;2023-03-09T12:50:04;6.70;;;3.85;;
21354;SDS011;10835;50.148;19.760;2023-03-09T12:52:51;4.47;;;3.13;;
21354;SDS011;10835;50.148;19.760;2023-03-09T12:55:41;2.85;;;1.90;;
21354;SDS011;10835;50.148;19.760;2023-03-09T13:01:03;4.88;;;2.67;;
21354;SDS011;10835;50.148;19.760;2023-03-09T13:03:36;6.18;;;3.25;;
21354;SDS011;10835;50.148;19.760;2023-03-09T13:06:22;6.13;;;2.92;;
21354;SDS011;10835;50.148;19.760;2023-03-09T13:09:02;5.45;;;3.85;;
21354;SDS011;10835;50.148;19.760;2023-03-09T13:11:34;3.75;;;2.05;;
21354;SDS011;10835;50.148;19.760;2023-03-09T13:14:10;4.78;;;3.70;;
21354;SDS011;10835;50.148;19.760;2023-03-09T13:22:20;4.20;;;3.25;;
21354;SDS011;10835;50.148;19.760;2023-03-09T13:24:54;6.20;;;4.07;;
21354;SDS011;10835;50.148;19.760;2023-03-09T13:27:47;1.95;;;1.55;;
21354;SDS011;10835;50.148;19.760;2023-03-09T13:30:20;6.03;;;4.03;;
21354;SDS011;10835;50.148;19.760;2023-03-09T13:32:55;5.85;;;2.78;;
21354;SDS011;10835;50.148;19.760;2023-03-09T13:35:32;6.40;;;2.97;;
21354;SDS011;10835;50.148;19.760;2023-03-09T13:38:05;3.35;;;3.05;;
21354;SDS011;10835;50.148;19.760;2023-03-09T13:40:49;6.93;;;3.05;;
21354;SDS011;10835;50.148;19.760;2023-03-09T13:43:20;4.78;;;2.50;;
21354;SDS011;10835;50.148;19.760;2023-03-09T13:45:55;2.47;;;2.17;;
21354;SDS011;10835;50.148;19.760;2023-03-09T13:48:28;8.45;;;3.75;;
21354;SDS011;10835;50.148;19.760;2023-03-09T13:50:58;7.35;;;4.47;;
21354;SDS011;10835;50.148;19.760;2023-03-09T13:53:27;4.10;;;3.10;;
21354;SDS011;10835;50.148;19.760;2023-03-09T13:55:58;5.50;;;3.28;;
21354;SDS011;10835;50.148;19.760;2023-03-09T13:58:28;3.97;;;2.50;;
21354;SDS011;10835;50.148;19.760;2023-03-09T14:01:00;7.05;;;4.25;;
21354;SDS011;10835;50.148;19.760;2023-03-09T14:03:30;6.30;;;3.97;;
21354;SDS011;10835;50.148;19.760;2023-03-09T14:06:00;7.07;;;3.60;;
21354;SDS011;10835;50.148;19.760;2023-03-09T14:08:50;5.15;;;3.35;;
21354;SDS011;10835;50.148;19.760;2023-03-09T14:11:22;4.05;;;2.88;;
21354;SDS011;10835;50.148;19.760;2023-03-09T14:13:53;8.10;;;4.18;;
21354;SDS011;10835;50.148;19.760;2023-03-09T14:16:29;7.47;;;5.13;;
21354;SDS011;10835;50.148;19.760;2023-03-09T14:18:59;11.10;;;6.00;;
21354;SDS011;10835;50.148;19.760;2023-03-09T14:21:29;8.15;;;5.90;;
21354;SDS011;10835;50.148;19.760;2023-03-09T14:24:09;6.57;;;3.05;;
21354;SDS011;10835;50.148;19.760;2023-03-09T14:26:40;2.92;;;2.13;;
21354;SDS011;10835;50.148;19.760;2023-03-09T14:29:18;5.65;;;3.28;;
21354;SDS011;10835;50.148;19.760;2023-03-09T14:31:48;6.72;;;3.90;;
21354;SDS011;10835;50.148;19.760;2023-03-09T14:34:34;1.60;;;1.20;;
21354;SDS011;10835;50.148;19.760;2023-03-09T14:37:13;5.65;;;3.20;;
21354;SDS011;10835;50.148;19.760;2023-03-09T14:39:46;2.70;;;2.30;;
21354;SDS011;10835;50.148;19.760;2023-03-09T14:42:17;3.92;;;2.40;;
21354;SDS011;10835;50.148;19.760;2023-03-09T14:45:00;1.77;;;1.63;;
21354;SDS011;10835;50.148;19.760;2023-03-09T14:47:35;3.88;;;1.83;;
21354;SDS011;10835;50.148;19.760;2023-03-09T14:50:04;4.03;;;2.80;;
21354;SDS011;10835;50.148;19.760;2023-03-09T14:52:33;4.90;;;3.08;;
21354;SDS011;10835;50.148;19.760;2023-03-09T14:55:05;4.13;;;2.78;;
21354;SDS011;10835;50.148;19.760;2023-03-09T14:57:40;5.07;;;2.65;;
21354;SDS011;10835;50.148;19.760;2023-03-09T15:00:12;5.05;;;2.92;;
21354;SDS011;10835;50.148;19.760;2023-03-09T15:02:46;6.68;;;3.40;;
21354;SDS011;10835;50.148;19.760;2023-03-09T15:05:16;7.55;;;3.35;;
21354;SDS011;10835;50.148;19.760;2023-03-09T15:07:47;3.58;;;2.25;;
21354;SDS011;10835;50.148;19.760;2023-03-09T15:10:16;6.00;;;4.30;;
21354;SDS011;10835;50.148;19.760;2023-03-09T15:12:46;10.50;;;6.40;;